Hockley Mine, Texas
Current Conditions -  °F | °C
As of 3:53 AM on Sunday 21 Dec 2014 (Local Time) from KDWH Reporting Station
Overcast Overcast  
Wind Chill: 50°   Ceiling: 2100
Heat Index: 50°   Visibility: 10mi
Dew Point: 45°   Wind: 5mph
Humidity: 83%   Direction: 80°E
Pressure: 30.14"   Gusts: NA
Location:  30.0437°N, 95.8249°W
Report Text: KDWH 210953Z 08004KT 10SM OVC021 10/07 A3014 RMK AO2 SLP206 T01000072
Loading
Personal Weather Stations






























Interactive Weather Map New forecast layout! Learn more

10-Day Weather Forecast

Advertisements
Track Severe Weather on mobile